createdAt,value
2022-10-02T00:00:18.376Z,92.40
2022-10-02T00:01:18.430Z,92.19
2022-10-02T00:02:18.356Z,92.84
2022-10-02T00:03:18.364Z,93.05
2022-10-02T00:04:18.394Z,93.35
2022-10-02T00:05:18.324Z,93.15
2022-10-02T00:06:18.322Z,93.05
2022-10-02T00:07:18.309Z,94.07
2022-10-02T00:08:23.302Z,93.66
2022-10-02T00:09:19.276Z,94.17
2022-10-02T00:10:18.269Z,94.07
2022-10-02T00:11:18.253Z,94.07
2022-10-02T00:12:18.245Z,94.17
2022-10-02T00:13:18.252Z,93.76
2022-10-02T00:14:18.219Z,93.96
2022-10-02T00:15:18.227Z,94.17
2022-10-02T00:16:18.254Z,94.07
2022-10-02T00:17:18.184Z,94.17
2022-10-02T00:18:18.193Z,94.68
2022-10-02T00:19:18.164Z,94.17
2022-10-02T00:20:18.156Z,94.07
2022-10-02T00:21:18.137Z,94.27
2022-10-02T00:22:18.126Z,95.04
2022-10-02T00:23:18.130Z,95.04
2022-10-02T00:24:18.105Z,94.38
2022-10-02T00:25:18.101Z,95.00
2022-10-02T00:26:18.082Z,95.04
2022-10-02T00:27:18.079Z,94.12
2022-10-02T00:28:18.177Z,94.53
2022-10-02T00:29:18.048Z,94.38
2022-10-02T00:30:18.036Z,94.59
2022-10-02T00:31:18.145Z,94.08
2022-10-02T00:32:18.012Z,95.09
2022-10-02T00:33:18.025Z,95.00
2022-10-02T00:34:17.989Z,94.79
2022-10-02T00:35:17.991Z,94.79
2022-10-02T00:36:17.997Z,95.00
2022-10-02T00:37:17.962Z,94.54
2022-10-02T00:38:17.957Z,94.44
2022-10-02T00:39:17.942Z,94.24
2022-10-02T00:40:17.921Z,94.24
2022-10-02T00:41:17.910Z,94.24
2022-10-02T00:42:17.914Z,95.36
2022-10-02T00:43:17.912Z,94.44
2022-10-02T00:44:17.885Z,95.10
2022-10-02T00:45:17.865Z,94.50
2022-10-02T00:46:17.913Z,94.09
2022-10-02T00:47:17.870Z,94.50
2022-10-02T00:48:17.847Z,93.99
2022-10-02T00:49:17.840Z,93.99
2022-10-02T00:50:17.813Z,93.68
2022-10-02T00:51:17.806Z,94.20
2022-10-02T00:52:17.791Z,93.79
2022-10-02T00:53:17.799Z,93.44
2022-10-02T00:54:17.770Z,93.79
2022-10-02T00:55:17.760Z,93.38
2022-10-02T00:56:17.741Z,93.64
2022-10-02T00:57:17.732Z,93.54
2022-10-02T00:58:17.753Z,93.44
2022-10-02T00:59:17.719Z,93.13
2022-10-02T01:00:17.704Z,93.48
2022-10-02T01:01:17.767Z,93.44
2022-10-02T01:02:17.748Z,93.33
2022-10-02T01:03:17.699Z,93.44
2022-10-02T01:04:17.650Z,93.95
2022-10-02T01:05:17.646Z,93.18
2022-10-02T01:06:17.629Z,93.84
2022-10-02T01:07:17.624Z,93.89
2022-10-02T01:08:17.624Z,93.13
2022-10-02T01:09:17.594Z,93.79
2022-10-02T01:10:17.599Z,93.54
2022-10-02T01:11:17.582Z,93.74
2022-10-02T01:12:17.564Z,93.33
2022-10-02T01:13:17.581Z,93.54
2022-10-02T01:14:17.546Z,93.74
2022-10-02T01:15:17.536Z,93.68
2022-10-02T01:16:17.602Z,93.79
2022-10-02T01:17:17.511Z,93.59
2022-10-02T01:18:17.512Z,93.64
2022-10-02T01:19:17.511Z,93.38
2022-10-02T01:20:17.481Z,93.74
2022-10-02T01:21:17.464Z,93.44
2022-10-02T01:22:17.464Z,93.74
2022-10-02T01:23:17.457Z,93.84
2022-10-02T01:24:17.427Z,93.84
2022-10-02T01:25:17.421Z,93.74
2022-10-02T01:26:17.412Z,93.95
2022-10-02T01:27:17.400Z,93.74
2022-10-02T01:28:17.502Z,93.54
2022-10-02T01:29:17.369Z,93.64
2022-10-02T01:30:17.361Z,93.44
2022-10-02T01:31:17.433Z,93.70
2022-10-02T01:32:17.344Z,93.95
2022-10-02T01:33:17.342Z,93.33
2022-10-02T01:34:17.319Z,93.74
2022-10-02T01:35:17.322Z,93.84
2022-10-02T01:36:17.290Z,93.80
2022-10-02T01:37:17.282Z,94.00
2022-10-02T01:38:17.284Z,93.64
2022-10-02T01:39:17.258Z,94.05
2022-10-02T01:40:17.254Z,93.70
2022-10-02T01:41:17.232Z,93.29
2022-10-02T01:42:17.247Z,93.49
2022-10-02T01:43:17.223Z,93.90
2022-10-02T01:44:17.213Z,93.49
2022-10-02T01:45:17.191Z,93.40
2022-10-02T01:46:17.252Z,93.49
2022-10-02T01:47:17.174Z,93.40
2022-10-02T01:48:17.161Z,93.60
2022-10-02T01:49:17.166Z,93.90
2022-10-02T01:50:17.140Z,93.09
2022-10-02T01:51:17.147Z,93.76
2022-10-02T01:52:17.111Z,93.86
2022-10-02T01:53:17.098Z,93.25
2022-10-02T01:54:17.107Z,93.19
2022-10-02T01:55:17.083Z,92.54
2022-10-02T01:56:17.066Z,92.84
2022-10-02T01:57:17.064Z,93.05
2022-10-02T01:58:17.054Z,93.05
2022-10-02T01:59:17.063Z,92.74
2022-10-02T02:00:17.039Z,92.94
2022-10-02T02:01:17.127Z,92.84
2022-10-02T02:02:17.091Z,92.64
2022-10-02T02:03:16.984Z,92.74
2022-10-02T02:04:17.000Z,92.84
2022-10-02T02:05:16.970Z,93.05
2022-10-02T02:06:16.963Z,93.15
2022-10-02T02:07:16.962Z,92.64
2022-10-02T02:08:16.938Z,92.60
2022-10-02T02:09:16.949Z,92.44
2022-10-02T02:10:16.910Z,92.54
2022-10-02T02:11:16.903Z,92.60
2022-10-02T02:12:16.897Z,92.44
2022-10-02T02:13:16.880Z,92.74
2022-10-02T02:14:16.884Z,92.64
2022-10-02T02:15:16.850Z,92.29
2022-10-02T02:16:16.887Z,92.54
2022-10-02T02:17:16.834Z,92.64
2022-10-02T02:18:16.817Z,92.29
2022-10-02T02:19:16.819Z,92.29
2022-10-02T02:20:16.798Z,92.19
2022-10-02T02:21:16.788Z,92.90
2022-10-02T02:22:16.770Z,92.70
2022-10-02T02:23:16.777Z,92.29
2022-10-02T02:24:16.770Z,91.89
2022-10-02T02:25:16.738Z,92.40
2022-10-02T02:26:16.728Z,91.89
2022-10-02T02:27:16.714Z,92.19
2022-10-02T02:28:16.758Z,92.09
2022-10-02T02:29:16.692Z,91.85
2022-10-02T02:30:16.697Z,91.78
2022-10-02T02:31:16.737Z,91.78
2022-10-02T02:32:16.676Z,91.34
2022-10-02T02:33:16.657Z,91.48
2022-10-02T02:34:16.647Z,91.13
2022-10-02T02:35:16.643Z,90.97
2022-10-02T02:36:16.627Z,91.44
2022-10-02T02:37:16.665Z,91.48
2022-10-02T02:38:16.598Z,91.44
2022-10-02T02:39:16.604Z,91.54
2022-10-02T02:40:16.594Z,91.44
2022-10-02T02:41:16.592Z,91.38
2022-10-02T02:42:17.973Z,91.34
2022-10-02T02:43:16.556Z,91.38
2022-10-02T02:44:16.530Z,91.48
2022-10-02T02:45:16.531Z,91.38
2022-10-02T02:46:16.507Z,91.08
2022-10-02T02:47:16.500Z,91.54
2022-10-02T02:48:16.483Z,91.28
2022-10-02T02:49:16.478Z,91.58
2022-10-02T02:50:16.481Z,91.38
2022-10-02T02:51:16.460Z,91.48
2022-10-02T02:52:16.438Z,91.58
2022-10-02T02:53:16.425Z,91.38
2022-10-02T02:54:16.424Z,91.58
2022-10-02T02:55:16.441Z,91.58
2022-10-02T02:56:16.399Z,91.17
2022-10-02T02:57:16.381Z,91.48
2022-10-02T02:58:16.380Z,91.17
2022-10-02T02:59:16.358Z,91.58
2022-10-02T03:00:16.351Z,91.17
2022-10-02T03:01:16.404Z,91.38
2022-10-02T03:02:16.424Z,90.88
2022-10-02T03:03:16.314Z,90.88
2022-10-02T03:04:16.311Z,91.78
2022-10-02T03:05:16.300Z,91.58
2022-10-02T03:06:16.301Z,91.28
2022-10-02T03:07:16.277Z,91.38
2022-10-02T03:08:16.271Z,91.54
2022-10-02T03:09:16.257Z,91.58
2022-10-02T03:10:16.238Z,91.68
2022-10-02T03:11:16.258Z,91.38
2022-10-02T03:12:16.224Z,91.78
2022-10-02T03:13:16.224Z,91.38
2022-10-02T03:14:16.199Z,91.38
2022-10-02T03:15:16.187Z,90.97
2022-10-02T03:16:16.248Z,91.03
2022-10-02T03:17:16.167Z,91.68
2022-10-02T03:18:16.149Z,91.38
2022-10-02T03:19:16.141Z,90.77
2022-10-02T03:20:16.125Z,90.62
2022-10-02T03:21:16.124Z,90.73
2022-10-02T03:22:16.109Z,90.77
2022-10-02T03:23:16.098Z,90.83
2022-10-02T03:24:16.088Z,90.62
2022-10-02T03:25:16.090Z,90.83
2022-10-02T03:26:16.077Z,90.88
2022-10-02T03:27:16.152Z,90.62
2022-10-02T03:28:27.187Z,90.42
2022-10-02T03:29:17.024Z,90.62
2022-10-02T03:30:16.019Z,90.73
2022-10-02T03:31:16.048Z,90.62
2022-10-02T03:32:16.008Z,90.62
2022-10-02T03:33:15.985Z,90.53
2022-10-02T03:34:15.968Z,90.53
2022-10-02T03:35:15.961Z,90.53
2022-10-02T03:36:15.961Z,90.62
2022-10-02T03:37:15.955Z,90.62
2022-10-02T03:38:15.928Z,90.73
2022-10-02T03:39:31.231Z,90.62
2022-10-02T03:40:16.899Z,90.32
2022-10-02T03:41:15.894Z,90.62
2022-10-02T03:42:15.898Z,90.83
2022-10-02T03:43:15.892Z,91.24
2022-10-02T03:44:15.857Z,91.44
2022-10-02T03:45:32.697Z,91.34
2022-10-02T03:46:16.917Z,91.44
2022-10-02T03:47:15.841Z,91.54
2022-10-02T03:48:15.816Z,91.64
2022-10-02T03:49:15.797Z,91.64
2022-10-02T03:50:15.787Z,91.44
2022-10-02T03:51:15.784Z,91.85
2022-10-02T03:52:15.777Z,92.65
2022-10-02T03:53:15.754Z,92.25
2022-10-02T03:54:15.743Z,92.76
2022-10-02T03:55:15.731Z,93.06
2022-10-02T03:56:15.720Z,92.65
2022-10-02T03:57:15.724Z,92.49
2022-10-02T03:58:15.697Z,93.57
2022-10-02T03:59:15.713Z,93.51
2022-10-02T04:00:15.688Z,93.37
2022-10-02T04:01:15.720Z,93.87
2022-10-02T04:02:15.669Z,93.81
2022-10-02T04:03:15.678Z,93.61
2022-10-02T04:04:15.627Z,93.87
2022-10-02T04:05:15.615Z,93.57
2022-10-02T04:06:15.618Z,94.22
2022-10-02T04:07:15.612Z,93.91
2022-10-02T04:08:15.596Z,94.02
2022-10-02T04:09:15.573Z,94.32
2022-10-02T04:10:15.571Z,94.27
2022-10-02T04:11:15.557Z,94.42
2022-10-02T04:12:15.563Z,94.22
2022-10-02T04:13:15.527Z,94.83
2022-10-02T04:14:15.516Z,95.43
2022-10-02T04:15:15.621Z,94.93
2022-10-02T04:16:15.578Z,94.83
2022-10-02T04:17:15.508Z,95.03
2022-10-02T04:18:15.476Z,95.23
2022-10-02T04:19:15.460Z,95.03
2022-10-02T04:20:15.455Z,95.03
2022-10-02T04:21:15.442Z,95.13
2022-10-02T04:22:15.445Z,95.13
2022-10-02T04:23:15.413Z,95.13
2022-10-02T04:24:15.406Z,95.13
2022-10-02T04:25:15.391Z,95.13
2022-10-02T04:26:15.386Z,95.23
2022-10-02T04:27:15.388Z,95.13
2022-10-02T04:28:15.427Z,95.23
2022-10-02T04:29:15.357Z,95.34
2022-10-02T04:30:15.342Z,95.54
2022-10-02T04:31:15.380Z,95.34
2022-10-02T04:32:15.330Z,95.13
2022-10-02T04:33:15.306Z,95.34
2022-10-02T04:34:15.300Z,95.03
2022-10-02T04:35:15.276Z,95.23
2022-10-02T04:36:15.265Z,95.23
2022-10-02T04:37:15.263Z,95.07
2022-10-02T04:38:15.243Z,95.13
2022-10-02T04:39:15.230Z,95.43
2022-10-02T04:40:15.227Z,95.23
2022-10-02T04:41:15.209Z,95.94
2022-10-02T04:42:15.257Z,95.34
2022-10-02T04:43:15.194Z,95.94
2022-10-02T04:44:15.174Z,95.43
2022-10-02T04:45:15.168Z,95.54
2022-10-02T04:46:15.253Z,95.54
2022-10-02T04:47:15.174Z,96.04
2022-10-02T04:48:15.134Z,95.74
2022-10-02T04:49:15.117Z,95.84
2022-10-02T04:50:15.112Z,95.54
2022-10-02T04:51:15.957Z,95.64
2022-10-02T04:52:15.096Z,95.89
2022-10-02T04:53:15.078Z,95.94
2022-10-02T04:54:15.070Z,95.74
2022-10-02T04:55:15.056Z,95.89
2022-10-02T04:56:15.035Z,96.19
2022-10-02T04:57:15.060Z,95.58
2022-10-02T04:58:15.028Z,95.13
2022-10-02T04:59:15.008Z,95.13
2022-10-02T05:00:14.991Z,95.23
2022-10-02T05:01:15.074Z,94.98
2022-10-02T05:02:15.149Z,95.23
2022-10-02T05:03:14.976Z,95.34
2022-10-02T05:04:14.953Z,95.13
2022-10-02T05:05:14.948Z,94.93
2022-10-02T05:06:14.931Z,95.07
2022-10-02T05:07:14.928Z,95.38
2022-10-02T05:08:14.918Z,95.03
2022-10-02T05:09:14.904Z,95.34
2022-10-02T05:10:14.894Z,95.79
2022-10-02T05:11:14.874Z,94.62
2022-10-02T05:12:14.874Z,95.03
2022-10-02T05:13:14.847Z,94.73
2022-10-02T05:14:14.833Z,94.83
2022-10-02T05:15:14.818Z,95.13
2022-10-02T05:16:14.888Z,94.73
2022-10-02T05:17:14.828Z,95.18
2022-10-02T05:18:17.974Z,94.73
2022-10-02T05:19:14.800Z,94.42
2022-10-02T05:20:14.770Z,94.42
2022-10-02T05:21:14.757Z,94.73
2022-10-02T05:22:14.761Z,94.22
2022-10-02T05:23:14.738Z,94.12
2022-10-02T05:24:14.718Z,94.93
2022-10-02T05:25:14.715Z,94.17
2022-10-02T05:26:14.763Z,94.62
2022-10-02T05:27:14.707Z,94.53
2022-10-02T05:28:14.736Z,94.62
2022-10-02T05:29:14.661Z,94.42
2022-10-02T05:30:14.668Z,94.62
2022-10-02T05:31:14.743Z,94.42
2022-10-02T05:32:14.646Z,94.32
2022-10-02T05:33:14.624Z,94.53
2022-10-02T05:34:14.606Z,94.42
2022-10-02T05:35:14.615Z,94.73
2022-10-02T05:36:14.594Z,94.42
2022-10-02T05:37:14.569Z,94.46
2022-10-02T05:38:14.575Z,94.53
2022-10-02T05:39:14.556Z,94.32
2022-10-02T05:40:14.543Z,94.53
2022-10-02T05:41:14.529Z,94.42
2022-10-02T05:42:14.521Z,94.32
2022-10-02T05:43:14.527Z,94.62
2022-10-02T05:44:14.509Z,94.42
2022-10-02T05:45:14.487Z,94.53
2022-10-02T05:46:14.606Z,94.32
2022-10-02T05:47:14.464Z,94.32
2022-10-02T05:48:14.466Z,94.53
2022-10-02T05:49:14.432Z,94.22
2022-10-02T05:50:14.421Z,94.53
2022-10-02T05:51:14.480Z,94.22
2022-10-02T05:52:14.399Z,94.42
2022-10-02T05:53:14.411Z,94.22
2022-10-02T05:54:14.382Z,94.46
2022-10-02T05:55:14.365Z,94.53
2022-10-02T05:56:14.360Z,94.62
2022-10-02T05:57:14.350Z,94.57
2022-10-02T05:58:14.348Z,94.32
2022-10-02T05:59:14.329Z,94.83
2022-10-02T06:00:14.313Z,94.62
2022-10-02T06:01:14.365Z,95.34
2022-10-02T06:02:14.368Z,95.34
2022-10-02T06:03:14.297Z,95.13
2022-10-02T06:04:14.268Z,95.23
2022-10-02T06:05:14.267Z,95.38
2022-10-02T06:06:14.245Z,95.43
2022-10-02T06:07:14.248Z,95.07
2022-10-02T06:08:14.228Z,95.28
2022-10-02T06:09:18.985Z,95.03
2022-10-02T06:10:15.198Z,95.03
2022-10-02T06:11:14.187Z,94.98
2022-10-02T06:12:14.176Z,95.38
2022-10-02T06:13:14.173Z,95.03
2022-10-02T06:14:14.156Z,95.03
2022-10-02T06:15:14.143Z,95.28
2022-10-02T06:16:14.200Z,95.28
2022-10-02T06:17:14.114Z,95.38
2022-10-02T06:18:14.116Z,95.18
2022-10-02T06:19:14.092Z,95.23
2022-10-02T06:20:14.079Z,95.34
2022-10-02T06:21:14.079Z,95.34
2022-10-02T06:22:14.067Z,95.34
2022-10-02T06:23:14.089Z,95.18
2022-10-02T06:24:14.039Z,95.34
2022-10-02T06:25:14.035Z,95.18
2022-10-02T06:26:14.023Z,95.03
2022-10-02T06:27:14.009Z,95.13
2022-10-02T06:28:14.126Z,95.13
2022-10-02T06:29:18.333Z,95.34
2022-10-02T06:30:14.963Z,95.23
2022-10-02T06:31:14.017Z,95.43
2022-10-02T06:32:13.948Z,94.93
2022-10-02T06:33:13.949Z,95.23
2022-10-02T06:34:13.932Z,95.03
2022-10-02T06:35:13.908Z,95.23
2022-10-02T06:36:13.903Z,95.03
2022-10-02T06:37:13.886Z,95.23
2022-10-02T06:38:13.873Z,95.03
2022-10-02T06:39:13.899Z,94.93
2022-10-02T06:40:13.849Z,95.03
2022-10-02T06:41:13.846Z,95.54
2022-10-02T06:42:13.829Z,95.13
2022-10-02T06:43:13.823Z,95.13
2022-10-02T06:44:13.824Z,94.93
2022-10-02T06:45:13.795Z,95.34
2022-10-02T06:46:13.854Z,95.13
2022-10-02T06:47:13.779Z,95.34
2022-10-02T06:48:13.766Z,95.43
2022-10-02T06:49:13.770Z,95.23
2022-10-02T06:50:13.745Z,95.23
2022-10-02T06:51:13.735Z,95.54
2022-10-02T06:52:13.723Z,95.50
2022-10-02T06:53:13.704Z,95.43
2022-10-02T06:54:13.713Z,95.54
2022-10-02T06:55:13.709Z,95.43
2022-10-02T06:56:13.674Z,95.23
2022-10-02T06:57:13.664Z,95.23
2022-10-02T06:58:13.643Z,95.34
2022-10-02T06:59:13.650Z,95.50
2022-10-02T07:00:13.623Z,95.03
2022-10-02T07:01:13.671Z,94.98
2022-10-02T07:02:13.633Z,95.54
2022-10-02T07:03:13.595Z,94.68
2022-10-02T07:04:13.593Z,94.38
2022-10-02T07:05:13.574Z,94.38
2022-10-02T07:06:13.559Z,94.38
2022-10-02T07:07:13.543Z,94.68
2022-10-02T07:08:13.532Z,94.58
2022-10-02T07:09:13.536Z,94.78
2022-10-02T07:10:13.511Z,94.68
2022-10-02T07:11:13.537Z,94.58
2022-10-02T07:12:13.496Z,94.18
2022-10-02T07:13:13.483Z,93.97
2022-10-02T07:14:13.478Z,94.18
2022-10-02T07:15:13.457Z,93.81
2022-10-02T07:16:13.477Z,93.57
2022-10-02T07:17:13.439Z,93.77
2022-10-02T07:18:13.422Z,93.26
2022-10-02T07:19:13.429Z,93.16
2022-10-02T07:20:13.395Z,93.71
2022-10-02T07:21:13.390Z,93.57
2022-10-02T07:22:32.693Z,92.55
2022-10-02T07:23:14.368Z,92.45
2022-10-02T07:24:13.361Z,92.80
2022-10-02T07:25:13.338Z,92.14
2022-10-02T07:26:13.327Z,91.64
2022-10-02T07:27:13.340Z,91.78
2022-10-02T07:28:13.411Z,91.54
2022-10-02T07:29:13.307Z,91.54
2022-10-02T07:30:13.292Z,90.32
2022-10-02T07:31:13.304Z,90.22
2022-10-02T07:32:13.264Z,90.73
2022-10-02T07:33:13.261Z,89.65
2022-10-02T07:34:13.261Z,89.15
2022-10-02T07:35:13.232Z,88.70
2022-10-02T07:36:13.211Z,89.11
2022-10-02T07:37:13.201Z,88.49
2022-10-02T07:38:13.213Z,88.90
2022-10-02T07:39:13.179Z,88.03
2022-10-02T07:40:13.177Z,87.93
2022-10-02T07:41:13.162Z,88.34
2022-10-02T07:42:13.154Z,87.73
2022-10-02T07:43:13.164Z,87.89
2022-10-02T07:44:13.125Z,88.54
2022-10-02T07:45:13.136Z,88.09
2022-10-02T07:46:13.144Z,87.48
2022-10-02T07:47:13.095Z,87.59
2022-10-02T07:48:13.083Z,87.99
2022-10-02T07:49:13.066Z,87.99
2022-10-02T07:50:13.079Z,87.99
2022-10-02T07:51:13.044Z,87.69
2022-10-02T07:52:13.029Z,88.40
2022-10-02T07:53:13.018Z,88.09
2022-10-02T07:54:13.006Z,88.40
2022-10-02T07:55:13.006Z,87.38
2022-10-02T07:56:12.985Z,87.48
2022-10-02T07:57:12.978Z,88.29
2022-10-02T07:58:12.960Z,88.49
2022-10-02T07:59:12.971Z,88.09
2022-10-02T08:00:12.967Z,88.09
2022-10-02T08:01:12.928Z,88.15
2022-10-02T08:02:13.049Z,88.09
2022-10-02T08:03:12.997Z,88.20
2022-10-02T08:04:12.900Z,88.09
2022-10-02T08:05:12.906Z,88.86
2022-10-02T08:06:12.877Z,88.76
2022-10-02T08:07:12.857Z,88.90
2022-10-02T08:08:12.850Z,88.66
2022-10-02T08:09:12.840Z,88.90
2022-10-02T08:10:12.833Z,88.80
2022-10-02T08:11:12.815Z,88.25
2022-10-02T08:12:12.809Z,88.80
2022-10-02T08:13:12.799Z,88.35
2022-10-02T08:14:12.789Z,88.66
2022-10-02T08:15:12.810Z,88.70
2022-10-02T08:16:12.811Z,88.96
2022-10-02T08:17:12.745Z,89.06
2022-10-02T08:18:33.025Z,89.06
2022-10-02T08:19:13.725Z,89.06
2022-10-02T08:20:12.730Z,89.17
2022-10-02T08:21:12.702Z,89.37
2022-10-02T08:22:12.694Z,88.66
2022-10-02T08:23:12.685Z,88.56
2022-10-02T08:24:12.674Z,88.80
2022-10-02T08:25:12.668Z,89.06
2022-10-02T08:26:12.645Z,89.47
2022-10-02T08:27:12.641Z,89.06
2022-10-02T08:28:12.724Z,89.77
2022-10-02T08:29:12.618Z,89.06
2022-10-02T08:30:12.612Z,88.96
2022-10-02T08:31:12.686Z,89.17
2022-10-02T08:32:12.586Z,88.56
2022-10-02T08:33:12.565Z,88.86
2022-10-02T08:34:12.558Z,89.06
2022-10-02T08:35:12.564Z,88.56
2022-10-02T08:36:12.530Z,88.56
2022-10-02T08:37:12.526Z,88.56
2022-10-02T08:38:12.549Z,88.76
2022-10-02T08:39:12.497Z,89.26
2022-10-02T08:40:12.493Z,88.56
2022-10-02T08:41:12.478Z,88.66
2022-10-02T08:42:12.472Z,88.86
2022-10-02T08:43:12.455Z,88.15
2022-10-02T08:44:12.436Z,88.15
2022-10-02T08:45:12.450Z,88.15
2022-10-02T08:46:12.482Z,88.25
2022-10-02T08:47:12.434Z,88.35
2022-10-02T08:48:12.390Z,87.95
2022-10-02T08:49:12.388Z,88.25
2022-10-02T08:50:12.374Z,88.15
2022-10-02T08:51:12.394Z,87.95
2022-10-02T08:52:12.347Z,88.01
2022-10-02T08:53:12.338Z,87.81
2022-10-02T08:54:12.323Z,88.42
2022-10-02T08:55:12.318Z,87.60
2022-10-02T08:56:15.346Z,87.77
2022-10-02T08:57:13.289Z,87.26
2022-10-02T08:58:12.289Z,87.36
2022-10-02T08:59:12.278Z,87.46
2022-10-02T09:00:12.263Z,87.02
2022-10-02T09:01:12.324Z,86.91
2022-10-02T09:02:12.269Z,86.00
2022-10-02T09:03:12.251Z,86.10
2022-10-02T09:04:12.208Z,85.90
2022-10-02T09:05:12.200Z,85.76
2022-10-02T09:06:12.205Z,85.80
2022-10-02T09:07:12.175Z,86.07
2022-10-02T09:08:12.170Z,85.96
2022-10-02T09:09:12.152Z,85.86
2022-10-02T09:10:12.140Z,85.66
2022-10-02T09:11:12.144Z,86.22
2022-10-02T09:12:12.126Z,85.62
2022-10-02T09:13:12.108Z,85.72
2022-10-02T09:14:12.102Z,84.51
2022-10-02T09:15:12.088Z,84.31
2022-10-02T09:16:12.194Z,84.57
2022-10-02T09:17:12.064Z,84.37
2022-10-02T09:18:12.050Z,84.73
2022-10-02T09:19:12.060Z,83.42
2022-10-02T09:20:12.029Z,82.81
2022-10-02T09:21:12.036Z,82.47
2022-10-02T09:22:12.009Z,81.82
2022-10-02T09:23:11.996Z,81.02
2022-10-02T09:24:11.990Z,81.28
2022-10-02T09:25:11.981Z,80.64
2022-10-02T09:26:11.967Z,80.94
2022-10-02T09:27:11.973Z,80.60
2022-10-02T09:28:12.013Z,80.50
2022-10-02T09:29:11.926Z,78.85
2022-10-02T09:30:11.919Z,78.55
2022-10-02T09:31:11.984Z,78.45
2022-10-02T09:32:11.917Z,78.31
2022-10-02T09:33:15.860Z,77.44
2022-10-02T09:34:11.875Z,77.81
2022-10-02T09:35:11.884Z,78.25
2022-10-02T09:36:11.854Z,77.24
2022-10-02T09:37:11.865Z,77.34
2022-10-02T09:38:11.827Z,77.34
2022-10-02T09:39:11.896Z,78.19
2022-10-02T09:40:11.802Z,78.22
2022-10-02T09:41:11.798Z,77.51
2022-10-02T09:42:11.789Z,77.15
2022-10-02T09:43:11.767Z,78.26
2022-10-02T09:44:11.756Z,78.76
2022-10-02T09:45:11.739Z,78.90
2022-10-02T09:46:11.815Z,79.81
2022-10-02T09:47:11.732Z,80.41
2022-10-02T09:48:11.707Z,80.05
2022-10-02T09:49:11.701Z,79.81
2022-10-02T09:50:11.688Z,80.05
2022-10-02T09:51:11.689Z,80.41
2022-10-02T09:52:11.673Z,80.72
2022-10-02T09:53:11.654Z,80.82
2022-10-02T09:54:11.638Z,80.65
2022-10-02T09:55:11.624Z,80.55
2022-10-02T09:56:11.621Z,80.41
2022-10-02T09:57:11.624Z,80.62
2022-10-02T09:58:11.591Z,80.55
2022-10-02T09:59:11.586Z,80.65
2022-10-02T10:00:11.571Z,80.85
2022-10-02T10:01:11.584Z,80.82
2022-10-02T10:02:11.641Z,80.72
2022-10-02T10:03:11.534Z,80.35
2022-10-02T10:04:11.527Z,80.35
2022-10-02T10:05:11.509Z,80.45
2022-10-02T10:06:11.501Z,80.76
2022-10-02T10:07:11.612Z,81.16
2022-10-02T10:08:11.476Z,80.96
2022-10-02T10:09:11.462Z,80.85
2022-10-02T10:10:11.457Z,80.62
2022-10-02T10:11:11.451Z,80.15
2022-10-02T10:12:11.442Z,80.35
2022-10-02T10:13:11.424Z,80.41
2022-10-02T10:14:11.407Z,80.31
2022-10-02T10:15:11.402Z,80.05
2022-10-02T10:16:11.479Z,79.91
2022-10-02T10:17:11.398Z,80.41
2022-10-02T10:18:11.365Z,79.64
2022-10-02T10:19:11.360Z,80.45
2022-10-02T10:20:11.341Z,80.41
2022-10-02T10:21:11.330Z,80.92
2022-10-02T10:22:11.311Z,80.41
2022-10-02T10:23:11.333Z,80.92
2022-10-02T10:24:11.294Z,80.62
2022-10-02T10:25:11.282Z,80.62
2022-10-02T10:26:11.270Z,79.81
2022-10-02T10:27:11.261Z,80.11
2022-10-02T10:28:11.297Z,79.61
2022-10-02T10:29:11.233Z,79.81
2022-10-02T10:30:11.213Z,79.97
2022-10-02T10:31:11.288Z,80.21
2022-10-02T10:32:11.199Z,80.07
2022-10-02T10:33:11.178Z,80.47
2022-10-02T10:34:11.190Z,80.38
2022-10-02T10:35:11.170Z,80.58
2022-10-02T10:36:11.155Z,79.77
2022-10-02T10:37:11.142Z,79.63
2022-10-02T10:38:11.138Z,79.16
2022-10-02T10:39:11.163Z,79.16
2022-10-02T10:40:11.134Z,79.67
2022-10-02T10:41:11.101Z,79.27
2022-10-02T10:42:11.079Z,80.58
2022-10-02T10:43:15.759Z,80.38
2022-10-02T10:44:12.075Z,80.47
2022-10-02T10:45:11.052Z,80.31
2022-10-02T10:46:11.135Z,79.91
2022-10-02T10:47:11.021Z,79.91
2022-10-02T10:48:11.010Z,79.30
2022-10-02T10:49:11.023Z,79.87
2022-10-02T10:50:11.054Z,79.67
2022-10-02T10:51:10.999Z,79.36
2022-10-02T10:52:10.973Z,79.63
2022-10-02T10:53:10.952Z,78.99
2022-10-02T10:54:10.959Z,78.19
2022-10-02T10:55:10.956Z,77.58
2022-10-02T10:56:10.925Z,77.44
2022-10-02T10:57:10.910Z,76.74
2022-10-02T10:58:10.900Z,76.94
2022-10-02T10:59:10.890Z,76.84
2022-10-02T11:00:11.002Z,76.43
2022-10-02T11:01:10.975Z,76.84
2022-10-02T11:02:10.910Z,77.11
2022-10-02T11:03:10.835Z,77.31
2022-10-02T11:04:10.832Z,77.40
2022-10-02T11:05:10.828Z,77.20
2022-10-02T11:06:10.809Z,76.87
2022-10-02T11:07:10.797Z,77.07
2022-10-02T11:08:10.787Z,76.87
2022-10-02T11:09:10.779Z,76.46
2022-10-02T11:10:10.840Z,76.46
2022-10-02T11:11:10.774Z,76.56
2022-10-02T11:12:10.735Z,76.12
2022-10-02T11:13:10.721Z,75.92
2022-10-02T11:14:10.721Z,76.06
2022-10-02T11:15:10.700Z,75.96
2022-10-02T11:16:10.731Z,76.06
2022-10-02T11:17:10.685Z,75.42
2022-10-02T11:18:10.673Z,75.42
2022-10-02T11:19:10.663Z,76.23
2022-10-02T11:20:10.755Z,75.35
2022-10-02T11:21:10.651Z,75.62
2022-10-02T11:22:10.631Z,75.66
2022-10-02T11:23:10.611Z,75.66
2022-10-02T11:24:11.107Z,76.06
2022-10-02T11:25:12.883Z,75.70
2022-10-02T11:26:10.587Z,75.26
2022-10-02T11:27:10.600Z,75.39
2022-10-02T11:28:10.627Z,75.90
2022-10-02T11:29:10.545Z,76.80
2022-10-02T11:30:10.645Z,76.60
2022-10-02T11:31:10.600Z,76.50
2022-10-02T11:32:10.583Z,76.50
2022-10-02T11:33:10.506Z,76.70
2022-10-02T11:34:10.487Z,76.10
2022-10-02T11:35:10.479Z,75.99
2022-10-02T11:36:10.466Z,76.40
2022-10-02T11:37:10.501Z,75.99
2022-10-02T11:38:10.466Z,75.90
2022-10-02T11:39:10.432Z,76.10
2022-10-02T11:40:10.484Z,76.50
2022-10-02T11:41:10.409Z,76.80
2022-10-02T11:42:10.409Z,76.80
2022-10-02T11:43:10.423Z,76.60
2022-10-02T11:44:10.395Z,75.90
2022-10-02T11:45:10.365Z,76.20
2022-10-02T11:46:10.426Z,76.20
2022-10-02T11:47:10.353Z,76.30
2022-10-02T11:48:10.361Z,76.30
2022-10-02T11:49:10.329Z,75.59
2022-10-02T11:50:10.327Z,76.43
2022-10-02T11:51:10.369Z,76.43
2022-10-02T11:52:10.293Z,75.23
2022-10-02T11:53:10.297Z,75.53
2022-10-02T11:54:10.281Z,76.03
2022-10-02T11:55:10.253Z,76.14
2022-10-02T11:56:10.248Z,76.03
2022-10-02T11:57:10.233Z,75.53
2022-10-02T11:58:10.242Z,76.30
2022-10-02T11:59:10.227Z,76.06
2022-10-02T12:00:10.203Z,76.26
2022-10-02T12:01:10.192Z,76.16
2022-10-02T12:02:13.306Z,76.26
2022-10-02T12:03:11.370Z,75.92
2022-10-02T12:04:10.162Z,75.56
2022-10-02T12:05:10.146Z,74.82
2022-10-02T12:06:10.137Z,74.52
2022-10-02T12:07:10.119Z,74.11
2022-10-02T12:08:10.114Z,74.21
2022-10-02T12:09:10.116Z,74.41
2022-10-02T12:10:10.084Z,74.35
2022-10-02T12:11:10.072Z,74.65
2022-10-02T12:12:10.062Z,74.35
2022-10-02T12:13:10.050Z,74.52
2022-10-02T12:14:10.061Z,74.41
2022-10-02T12:15:10.062Z,75.12
2022-10-02T12:16:10.096Z,75.35
2022-10-02T12:17:10.005Z,74.52
2022-10-02T12:18:09.996Z,74.32
2022-10-02T12:19:10.001Z,74.62
2022-10-02T12:20:09.981Z,74.38
2022-10-02T12:21:09.969Z,74.24
2022-10-02T12:22:09.950Z,72.74
2022-10-02T12:23:09.939Z,72.80
2022-10-02T12:24:09.937Z,71.66
2022-10-02T12:25:09.937Z,71.77
2022-10-02T12:26:09.913Z,70.89
2022-10-02T12:27:10.009Z,70.56
2022-10-02T12:28:09.938Z,69.76
2022-10-02T12:29:09.870Z,68.96
2022-10-02T12:30:09.880Z,68.46
2022-10-02T12:31:09.894Z,68.46
2022-10-02T12:32:09.897Z,67.85
2022-10-02T12:33:09.834Z,67.85
2022-10-02T12:34:09.819Z,67.55
2022-10-02T12:35:09.824Z,67.55
2022-10-02T12:36:09.802Z,67.55
2022-10-02T12:37:09.779Z,67.58
2022-10-02T12:38:09.776Z,68.29
2022-10-02T12:39:09.763Z,68.79
2022-10-02T12:40:09.769Z,68.62
2022-10-02T12:41:09.732Z,68.82
2022-10-02T12:42:09.731Z,68.92
2022-10-02T12:43:09.736Z,69.22
2022-10-02T12:44:09.708Z,68.92
2022-10-02T12:45:11.938Z,68.92
2022-10-02T12:46:09.724Z,69.49
2022-10-02T12:47:09.687Z,68.92
2022-10-02T12:48:09.663Z,68.92
2022-10-02T12:49:09.645Z,69.46
2022-10-02T12:50:09.662Z,69.85
2022-10-02T12:51:09.627Z,70.23
2022-10-02T12:52:09.613Z,69.46